Weather at North Eleuthera Airport

Public forecast

Using degrees Celsius for public forecast. Weather courtesy of forecast.io.

Closest aviation weather report (METAR) to North Eleuthera Airport

Closest report is Lynden Pindling International Airport, 49.9 nm (92.4 km) WSW. Retrieved 2021/06/18 23:00 UTC (56 minutes ago):

MYNN 182300Z 14009KT 9999 FEW020 BKN100 BKN220 29/23 A3006

Closest aviation forecast (TAF) to North Eleuthera Airport

Closest forecast is Lynden Pindling International Airport, 49.9 nm (92.4 km) WSW. Retrieved 2021/06/18 18:41 UTC (5 hours ago):

TAF MYNN 181655Z 1818/1918 15010KT 9999 FEW020 BKN120 BKN220